createdAt,value
2018-08-24T00:01:16.929Z,25.00
2018-08-24T00:06:20.157Z,24.90
2018-08-24T00:11:23.352Z,24.90
2018-08-24T00:16:31.863Z,24.90
2018-08-24T00:21:35.128Z,24.90
2018-08-24T00:26:38.356Z,24.90
2018-08-24T00:31:41.612Z,24.80
2018-08-24T00:36:44.800Z,24.80
2018-08-24T00:41:48.005Z,24.80
2018-08-24T00:46:51.203Z,24.80
2018-08-24T00:51:54.424Z,24.80
2018-08-24T00:56:57.643Z,24.70
2018-08-24T01:02:00.863Z,24.70
2018-08-24T01:07:09.588Z,24.70
2018-08-24T01:12:14.077Z,24.60
2018-08-24T01:17:22.640Z,24.60
2018-08-24T01:22:25.831Z,24.60
2018-08-24T01:27:29.035Z,24.60
2018-08-24T01:32:32.245Z,24.60
2018-08-24T01:37:35.476Z,24.60
2018-08-24T01:42:38.684Z,24.50
2018-08-24T01:47:41.871Z,24.50
2018-08-24T01:52:45.092Z,24.50
2018-08-24T01:57:48.289Z,24.50
2018-08-24T02:02:51.528Z,24.50
2018-08-24T02:07:54.735Z,24.50
2018-08-24T02:13:03.251Z,24.50
2018-08-24T02:18:11.732Z,24.50
2018-08-24T02:23:15.024Z,24.50
2018-08-24T02:28:18.228Z,24.40
2018-08-24T02:33:21.444Z,24.40
2018-08-24T02:38:24.712Z,24.40
2018-08-24T02:43:27.902Z,24.40
2018-08-24T02:48:31.176Z,24.40
2018-08-24T02:53:34.388Z,24.40
2018-08-24T02:58:37.592Z,24.30
2018-08-24T03:03:40.816Z,24.30
2018-08-24T03:08:44.037Z,24.30
2018-08-24T03:13:47.277Z,24.30
2018-08-24T03:18:50.472Z,24.30
2018-08-24T03:23:53.699Z,24.30
2018-08-24T03:28:56.908Z,24.20
2018-08-24T03:34:00.095Z,24.20
2018-08-24T03:39:03.757Z,24.20
2018-08-24T03:44:06.963Z,24.20
2018-08-24T03:49:10.168Z,24.10
2018-08-24T03:54:15.315Z,24.10
2018-08-24T03:59:18.511Z,24.10
2018-08-24T04:04:21.740Z,24.10
2018-08-24T04:09:24.950Z,24.10
2018-08-24T04:14:28.156Z,24.00
2018-08-24T04:19:31.464Z,24.00
2018-08-24T04:24:34.568Z,24.00
2018-08-24T04:29:37.768Z,24.00
2018-08-24T04:34:40.968Z,23.90
2018-08-24T04:39:44.183Z,23.90
2018-08-24T04:44:47.384Z,23.90
2018-08-24T04:49:50.702Z,23.90
2018-08-24T04:54:53.897Z,23.90
2018-08-24T04:59:57.091Z,23.80
2018-08-24T05:05:00.320Z,23.80
2018-08-24T05:10:03.551Z,23.80
2018-08-24T05:15:06.873Z,23.70
2018-08-24T05:20:10.063Z,23.70
2018-08-24T05:25:13.272Z,23.70
2018-08-24T05:30:16.463Z,23.70
2018-08-24T05:35:19.661Z,23.70
2018-08-24T05:40:22.848Z,23.60
2018-08-24T05:45:26.068Z,23.60
2018-08-24T05:50:29.307Z,23.60
2018-08-24T05:55:32.558Z,23.50
2018-08-24T06:00:36.923Z,23.50
2018-08-24T06:05:45.728Z,23.40
2018-08-24T06:10:48.824Z,23.50
2018-08-24T06:15:52.024Z,23.40
2018-08-24T06:20:55.206Z,23.40
2018-08-24T06:25:58.388Z,23.40
2018-08-24T06:31:01.575Z,23.40
2018-08-24T06:36:04.872Z,23.40
2018-08-24T06:41:08.067Z,23.30
2018-08-24T06:46:11.284Z,23.30
2018-08-24T06:51:14.532Z,23.30
2018-08-24T06:56:17.729Z,23.30
2018-08-24T07:01:20.940Z,23.30
2018-08-24T07:06:24.639Z,23.30
2018-08-24T07:11:27.847Z,23.30
2018-08-24T07:16:31.056Z,23.20
2018-08-24T07:21:34.240Z,23.20
2018-08-24T07:26:37.500Z,23.20
2018-08-24T07:31:40.709Z,23.20
2018-08-24T07:36:43.903Z,23.20
2018-08-24T07:41:47.163Z,23.20
2018-08-24T07:46:50.354Z,23.20
2018-08-24T07:51:53.575Z,22.80
2018-08-24T07:56:56.821Z,23.20
2018-08-24T08:02:00.029Z,23.10
2018-08-24T08:07:03.239Z,23.20
2018-08-24T08:12:06.496Z,23.20
2018-08-24T08:17:09.692Z,23.30
2018-08-24T08:22:13.152Z,23.30
2018-08-24T08:27:16.337Z,23.30
2018-08-24T08:32:19.528Z,23.40
2018-08-24T08:37:23.658Z,23.40
2018-08-24T08:42:27.219Z,23.40
2018-08-24T08:47:30.432Z,23.50
2018-08-24T08:52:33.772Z,23.40
2018-08-24T08:57:36.972Z,23.50
2018-08-24T09:02:40.208Z,23.50
2018-08-24T09:07:43.516Z,23.50
2018-08-24T09:12:46.841Z,23.50
2018-08-24T09:17:55.213Z,23.50
2018-08-24T09:23:03.854Z,23.50
2018-08-24T09:28:12.685Z,23.50
2018-08-24T09:33:15.896Z,23.50
2018-08-24T09:38:19.094Z,23.40
2018-08-24T09:43:27.732Z,23.50
2018-08-24T09:48:35.175Z,23.50
2018-08-24T09:53:43.932Z,23.60
2018-08-24T09:58:47.145Z,23.60
2018-08-24T10:03:55.894Z,23.70
2018-08-24T10:08:59.124Z,23.70
2018-08-24T10:14:02.401Z,23.70
2018-08-24T10:19:05.652Z,23.80
2018-08-24T10:24:09.237Z,23.80
2018-08-24T10:29:12.449Z,23.80
2018-08-24T10:34:15.649Z,23.80
2018-08-24T10:39:18.852Z,23.70
2018-08-24T10:44:22.096Z,23.80
2018-08-24T10:49:25.363Z,23.80
2018-08-24T10:54:28.507Z,23.80
2018-08-24T10:59:31.703Z,23.70
2018-08-24T11:04:34.963Z,23.70
2018-08-24T11:09:38.152Z,23.70
2018-08-24T11:14:41.348Z,23.80
2018-08-24T11:19:44.550Z,23.90
2018-08-24T11:24:47.756Z,23.90
2018-08-24T11:29:50.946Z,24.00
2018-08-24T11:34:54.152Z,24.00
2018-08-24T11:39:57.358Z,24.10
2018-08-24T11:45:00.555Z,24.10
2018-08-24T11:50:03.880Z,24.20
2018-08-24T11:55:07.105Z,24.20
2018-08-24T12:00:10.313Z,24.20
2018-08-24T12:05:13.540Z,24.20
2018-08-24T12:10:16.732Z,24.20
2018-08-24T12:15:19.939Z,24.20
2018-08-24T12:20:23.136Z,24.20
2018-08-24T12:25:26.567Z,24.20
2018-08-24T12:30:29.883Z,24.30
2018-08-24T12:35:33.067Z,24.30
2018-08-24T12:40:36.320Z,24.30
2018-08-24T12:45:39.513Z,24.40
2018-08-24T12:50:42.840Z,24.40
2018-08-24T12:55:46.159Z,24.40
2018-08-24T13:00:49.384Z,24.40
2018-08-24T13:05:52.608Z,24.40
2018-08-24T13:10:56.642Z,24.40
2018-08-24T13:16:00.052Z,24.40
2018-08-24T13:21:03.630Z,24.50
2018-08-24T13:26:06.959Z,24.50
2018-08-24T13:31:10.179Z,24.50
2018-08-24T13:36:13.492Z,24.50
2018-08-24T13:41:16.883Z,24.50
2018-08-24T13:46:21.100Z,24.60
2018-08-24T13:51:24.344Z,24.60
2018-08-24T13:56:27.528Z,24.60
2018-08-24T14:01:30.772Z,24.60
2018-08-24T14:06:33.984Z,24.60
2018-08-24T14:11:37.251Z,24.70
2018-08-24T14:16:40.444Z,24.60
2018-08-24T14:21:43.704Z,24.70
2018-08-24T14:26:46.884Z,24.70
2018-08-24T14:31:50.272Z,24.70
2018-08-24T14:36:53.420Z,24.70
2018-08-24T14:41:56.620Z,24.70
2018-08-24T14:47:00.667Z,24.70
2018-08-24T14:52:04.545Z,24.70
2018-08-24T14:57:07.799Z,24.60
2018-08-24T15:02:11.130Z,25.20
2018-08-24T15:07:14.477Z,25.50
2018-08-24T15:12:18.247Z,25.60
2018-08-24T15:17:21.468Z,25.60
2018-08-24T15:22:24.686Z,25.70
2018-08-24T15:27:27.987Z,25.80
2018-08-24T15:32:31.200Z,25.90
2018-08-24T15:37:34.407Z,25.90
2018-08-24T15:42:37.621Z,25.90
2018-08-24T15:47:40.824Z,26.00
2018-08-24T15:52:44.801Z,26.00
2018-08-24T15:59:57.648Z,25.90
2018-08-24T16:05:00.911Z,25.90
2018-08-24T16:10:04.116Z,25.90
2018-08-24T16:15:07.855Z,25.90
2018-08-24T16:20:12.296Z,25.80
2018-08-24T16:25:15.669Z,25.70
2018-08-24T16:30:18.948Z,25.40
2018-08-24T16:35:22.147Z,25.10
2018-08-24T16:40:25.859Z,25.00
2018-08-24T16:45:30.772Z,24.90
2018-08-24T16:50:34.006Z,24.80
2018-08-24T16:55:37.327Z,24.80
2018-08-24T17:00:40.535Z,24.70
2018-08-24T17:05:44.192Z,24.60
2018-08-24T17:10:47.472Z,24.60
2018-08-24T17:15:50.877Z,24.50
2018-08-24T17:20:54.221Z,24.50
2018-08-24T17:25:57.523Z,24.40
2018-08-24T17:31:00.811Z,24.40
2018-08-24T17:36:04.020Z,24.40
2018-08-24T17:41:07.231Z,24.30
2018-08-24T17:46:10.440Z,24.30
2018-08-24T17:51:13.651Z,24.30
2018-08-24T17:56:16.960Z,24.20
2018-08-24T18:01:20.300Z,24.20
2018-08-24T18:06:23.592Z,24.10
2018-08-24T18:11:26.827Z,24.10
2018-08-24T18:16:30.168Z,24.00
2018-08-24T18:21:33.412Z,24.00
2018-08-24T18:26:36.628Z,23.90
2018-08-24T18:31:39.992Z,23.90
2018-08-24T18:36:43.238Z,23.80
2018-08-24T18:41:46.384Z,23.80
2018-08-24T18:46:49.680Z,23.70
2018-08-24T18:51:52.995Z,23.70
2018-08-24T18:56:56.552Z,23.60
2018-08-24T19:01:59.841Z,23.50
2018-08-24T19:07:03.148Z,23.40
2018-08-24T19:12:38.184Z,23.50
2018-08-24T19:17:46.720Z,23.40
2018-08-24T19:22:49.908Z,23.40
2018-08-24T19:27:58.445Z,23.30
2018-08-24T19:33:02.620Z,23.30
2018-08-24T19:38:05.880Z,23.30
2018-08-24T19:43:09.132Z,23.20
2018-08-24T19:48:17.929Z,23.20
2018-08-24T19:53:21.100Z,23.10
2018-08-24T19:58:29.788Z,23.10
2018-08-24T20:03:33.004Z,23.10
2018-08-24T20:08:41.553Z,23.00
2018-08-24T20:13:44.728Z,23.00
2018-08-24T20:18:47.968Z,23.00
2018-08-24T20:23:51.145Z,22.70
2018-08-24T20:28:54.408Z,22.90
2018-08-24T20:33:57.605Z,22.80
2018-08-24T20:39:00.828Z,22.80
2018-08-24T20:44:04.022Z,22.80
2018-08-24T20:49:07.224Z,22.70
2018-08-24T20:54:10.520Z,22.50
2018-08-24T20:59:13.716Z,22.70
2018-08-24T21:04:17.018Z,22.80
2018-08-24T21:09:20.208Z,22.60
2018-08-24T21:14:23.526Z,22.60
2018-08-24T21:19:26.733Z,22.40
2018-08-24T21:24:29.948Z,22.20
2018-08-24T21:29:33.258Z,22.50
2018-08-24T21:34:36.583Z,22.50
2018-08-24T21:39:39.862Z,22.60
2018-08-24T21:44:43.110Z,22.10
2018-08-24T21:49:46.328Z,22.40
2018-08-24T21:54:49.604Z,22.10
2018-08-24T21:59:52.828Z,22.30
2018-08-24T22:04:56.060Z,22.30
2018-08-24T22:09:59.348Z,22.50
2018-08-24T22:15:02.572Z,22.40
2018-08-24T22:20:06.280Z,22.20
2018-08-24T22:25:09.517Z,21.80
2018-08-24T22:30:12.816Z,22.10
2018-08-24T22:35:16.012Z,22.10
2018-08-24T22:40:19.300Z,22.10
2018-08-24T22:45:23.729Z,22.10
2018-08-24T22:50:26.964Z,22.00
2018-08-24T22:55:30.210Z,22.00
2018-08-24T23:10:11.716Z,21.90
2018-08-24T23:15:14.905Z,21.90
2018-08-24T23:20:18.090Z,21.70
2018-08-24T23:25:21.336Z,21.80
2018-08-24T23:30:24.516Z,21.70
2018-08-24T23:35:27.751Z,21.60
2018-08-24T23:40:30.956Z,21.70
2018-08-24T23:45:34.203Z,21.70
2018-08-24T23:50:37.415Z,21.70
2018-08-24T23:55:40.756Z,21.70
